createdAt,value
2018-12-19T00:00:39.984Z,929.59
2018-12-19T00:01:40.032Z,929.54
2018-12-19T00:02:40.080Z,929.58
2018-12-19T00:03:40.157Z,929.56
2018-12-19T00:04:40.175Z,929.60
2018-12-19T00:05:40.234Z,929.59
2018-12-19T00:06:40.268Z,929.62
2018-12-19T00:07:40.317Z,929.64
2018-12-19T00:08:40.371Z,929.62
2018-12-19T00:09:40.423Z,929.63
2018-12-19T00:10:40.465Z,929.63
2018-12-19T00:11:40.496Z,929.65
2018-12-19T00:12:40.581Z,929.70
2018-12-19T00:13:40.632Z,929.72
2018-12-19T00:14:40.659Z,929.73
2018-12-19T00:15:40.718Z,929.76
2018-12-19T00:16:40.751Z,929.83
2018-12-19T00:17:40.818Z,929.92
2018-12-19T00:18:40.876Z,929.97
2018-12-19T00:19:40.956Z,930.06
2018-12-19T00:20:40.970Z,930.16
2018-12-19T00:21:41.030Z,930.19
2018-12-19T00:22:41.060Z,930.19
2018-12-19T00:23:41.120Z,930.19
2018-12-19T00:24:41.152Z,930.16
2018-12-19T00:25:41.215Z,930.20
2018-12-19T00:26:41.275Z,930.20
2018-12-19T00:27:41.293Z,930.20
2018-12-19T00:28:41.345Z,930.25
2018-12-19T00:29:41.396Z,930.29
2018-12-19T00:30:41.462Z,930.24
2018-12-19T00:31:41.517Z,930.25
2018-12-19T00:32:41.543Z,930.27
2018-12-19T00:33:41.597Z,930.30
2018-12-19T00:34:41.672Z,930.28
2018-12-19T00:35:41.693Z,930.34
2018-12-19T00:36:41.744Z,930.33
2018-12-19T00:37:41.784Z,930.37
2018-12-19T00:38:41.844Z,930.34
2018-12-19T00:39:41.902Z,930.41
2018-12-19T00:40:41.950Z,930.46
2018-12-19T00:41:41.999Z,930.43
2018-12-19T00:42:42.044Z,930.37
2018-12-19T00:43:42.143Z,930.44
2018-12-19T00:44:42.197Z,930.46
2018-12-19T00:45:42.200Z,930.47
2018-12-19T00:46:42.245Z,930.50
2018-12-19T00:47:42.328Z,930.53
2018-12-19T00:48:42.376Z,930.57
2018-12-19T00:49:42.386Z,930.55
2018-12-19T00:50:42.454Z,930.56
2018-12-19T00:51:42.464Z,930.56
2018-12-19T00:52:42.541Z,930.54
2018-12-19T00:53:42.584Z,930.56
2018-12-19T00:54:42.643Z,930.48
2018-12-19T00:55:42.678Z,930.46
2018-12-19T00:56:42.745Z,930.51
2018-12-19T00:57:42.786Z,930.48
2018-12-19T00:58:42.825Z,930.48
2018-12-19T00:59:42.871Z,930.57
2018-12-19T01:00:42.911Z,930.58
2018-12-19T01:01:42.975Z,930.66
2018-12-19T01:02:43.009Z,930.77
2018-12-19T01:03:43.084Z,930.78
2018-12-19T01:04:48.091Z,930.86
2018-12-19T01:05:43.169Z,930.93
2018-12-19T01:06:43.247Z,930.96
2018-12-19T01:07:43.272Z,931.02
2018-12-19T01:08:43.334Z,931.11
2018-12-19T01:09:43.381Z,931.13
2018-12-19T01:10:43.425Z,931.11
2018-12-19T01:11:43.456Z,931.11
2018-12-19T01:12:43.504Z,931.09
2018-12-19T01:13:43.579Z,931.06
2018-12-19T01:14:43.603Z,931.11
2018-12-19T01:15:43.649Z,931.08
2018-12-19T01:16:43.699Z,931.12
2018-12-19T01:17:43.747Z,931.15
2018-12-19T01:18:43.782Z,931.17
2018-12-19T01:19:43.844Z,931.19
2018-12-19T01:20:43.925Z,931.27
2018-12-19T01:21:43.950Z,931.30
2018-12-19T01:22:43.995Z,931.36
2018-12-19T01:23:44.042Z,931.31
2018-12-19T01:24:44.089Z,931.35
2018-12-19T01:25:44.112Z,931.32
2018-12-19T01:26:44.171Z,931.33
2018-12-19T01:27:44.240Z,931.24
2018-12-19T01:28:44.278Z,931.22
2018-12-19T01:29:44.322Z,931.19
2018-12-19T01:30:44.374Z,931.06
2018-12-19T01:31:44.424Z,931.08
2018-12-19T01:32:44.520Z,931.13
2018-12-19T01:33:44.527Z,931.09
2018-12-19T01:34:44.553Z,931.10
2018-12-19T01:35:44.592Z,931.10
2018-12-19T01:36:44.661Z,931.13
2018-12-19T01:37:44.691Z,931.08
2018-12-19T01:38:44.792Z,931.09
2018-12-19T01:39:44.787Z,931.08
2018-12-19T01:40:44.846Z,931.14
2018-12-19T01:41:44.902Z,931.15
2018-12-19T01:42:44.938Z,931.14
2018-12-19T01:43:45.002Z,931.13
2018-12-19T01:44:45.035Z,931.13
2018-12-19T01:45:45.079Z,931.21
2018-12-19T01:46:45.135Z,931.33
2018-12-19T01:47:45.181Z,931.36
2018-12-19T01:48:45.218Z,931.36
2018-12-19T01:49:45.254Z,931.40
2018-12-19T01:50:45.324Z,931.46
2018-12-19T01:51:45.351Z,931.44
2018-12-19T01:52:45.423Z,931.54
2018-12-19T01:53:45.453Z,931.60
2018-12-19T01:54:45.494Z,931.48
2018-12-19T01:55:45.555Z,931.43
2018-12-19T01:56:45.609Z,931.41
2018-12-19T01:57:45.647Z,931.40
2018-12-19T01:58:45.695Z,931.34
2018-12-19T01:59:45.716Z,931.30
2018-12-19T02:00:45.786Z,931.18
2018-12-19T02:01:45.836Z,931.20
2018-12-19T02:02:45.868Z,931.12
2018-12-19T02:03:45.933Z,931.09
2018-12-19T02:04:45.978Z,931.03
2018-12-19T02:05:46.024Z,930.98
2018-12-19T02:06:46.076Z,930.91
2018-12-19T02:07:46.106Z,930.95
2018-12-19T02:08:46.163Z,930.79
2018-12-19T02:09:46.217Z,930.97
2018-12-19T02:10:46.247Z,931.09
2018-12-19T02:11:46.307Z,931.04
2018-12-19T02:12:46.346Z,931.04
2018-12-19T02:13:46.427Z,931.13
2018-12-19T02:14:46.437Z,931.14
2018-12-19T02:15:46.467Z,931.14
2018-12-19T02:16:46.526Z,931.11
2018-12-19T02:17:46.565Z,931.10
2018-12-19T02:18:46.614Z,931.07
2018-12-19T02:19:46.678Z,931.16
2018-12-19T02:20:46.719Z,931.17
2018-12-19T02:21:46.794Z,931.12
2018-12-19T02:22:46.819Z,931.14
2018-12-19T02:23:46.864Z,931.11
2018-12-19T02:24:46.906Z,931.07
2018-12-19T02:25:46.956Z,931.04
2018-12-19T02:26:46.995Z,931.09
2018-12-19T02:27:47.040Z,931.02
2018-12-19T02:28:47.099Z,931.04
2018-12-19T02:29:47.129Z,930.93
2018-12-19T02:30:47.186Z,930.90
2018-12-19T02:31:47.220Z,930.94
2018-12-19T02:32:47.322Z,930.92
2018-12-19T02:33:47.326Z,930.92
2018-12-19T02:34:47.366Z,931.03
2018-12-19T02:35:47.420Z,930.99
2018-12-19T02:36:47.513Z,930.99
2018-12-19T02:37:47.508Z,931.03
2018-12-19T02:38:47.546Z,931.00
2018-12-19T02:39:47.591Z,930.98
2018-12-19T02:40:47.639Z,930.94
2018-12-19T02:41:47.690Z,930.85
2018-12-19T02:42:47.747Z,930.84
2018-12-19T02:43:47.800Z,930.80
2018-12-19T02:44:47.833Z,930.82
2018-12-19T02:45:47.867Z,930.72
2018-12-19T02:46:47.957Z,930.74
2018-12-19T02:47:47.997Z,930.67
2018-12-19T02:48:48.029Z,930.64
2018-12-19T02:49:48.069Z,930.62
2018-12-19T02:50:48.113Z,930.59
2018-12-19T02:51:48.158Z,930.58
2018-12-19T02:52:48.251Z,930.59
2018-12-19T02:53:48.297Z,930.54
2018-12-19T02:54:48.314Z,930.53
2018-12-19T02:55:48.349Z,930.59
2018-12-19T02:56:48.390Z,930.56
2018-12-19T02:57:48.429Z,930.55
2018-12-19T02:58:48.509Z,930.58
2018-12-19T02:59:48.541Z,930.62
2018-12-19T03:00:48.578Z,930.64
2018-12-19T03:01:48.636Z,930.76
2018-12-19T03:02:48.693Z,930.84
2018-12-19T03:03:48.725Z,930.91
2018-12-19T03:04:48.789Z,930.94
2018-12-19T03:05:48.824Z,930.96
2018-12-19T03:06:48.864Z,931.02
2018-12-19T03:07:48.938Z,931.01
2018-12-19T03:08:48.967Z,931.02
2018-12-19T03:09:49.056Z,931.05
2018-12-19T03:10:49.047Z,931.09
2018-12-19T03:11:49.121Z,931.12
2018-12-19T03:12:49.133Z,931.04
2018-12-19T03:13:49.231Z,931.05
2018-12-19T03:14:49.255Z,931.10
2018-12-19T03:15:49.296Z,931.15
2018-12-19T03:16:49.353Z,931.12
2018-12-19T03:17:49.404Z,931.10
2018-12-19T03:18:49.421Z,931.15
2018-12-19T03:19:49.478Z,931.05
2018-12-19T03:20:49.573Z,931.04
2018-12-19T03:21:49.586Z,931.02
2018-12-19T03:22:49.625Z,930.97
2018-12-19T03:23:49.673Z,930.98
2018-12-19T03:24:49.745Z,931.03
2018-12-19T03:25:49.761Z,930.92
2018-12-19T03:26:49.824Z,930.95
2018-12-19T03:27:49.862Z,930.97
2018-12-19T03:28:49.898Z,930.94
2018-12-19T03:29:49.941Z,930.89
2018-12-19T03:30:50.036Z,930.89
2018-12-19T03:31:50.037Z,930.79
2018-12-19T03:32:50.079Z,930.73
2018-12-19T03:33:50.139Z,930.73
2018-12-19T03:34:50.205Z,930.62
2018-12-19T03:35:50.229Z,930.60
2018-12-19T03:36:50.289Z,930.62
2018-12-19T03:37:50.347Z,930.54
2018-12-19T03:38:50.415Z,930.55
2018-12-19T03:39:50.529Z,930.48
2018-12-19T03:40:50.468Z,930.41
2018-12-19T03:41:50.516Z,930.35
2018-12-19T03:42:50.563Z,930.30
2018-12-19T03:43:50.617Z,930.27
2018-12-19T03:44:50.706Z,930.26
2018-12-19T03:45:50.696Z,930.18
2018-12-19T03:46:50.736Z,930.18
2018-12-19T03:47:50.842Z,930.18
2018-12-19T03:48:50.830Z,930.16
2018-12-19T03:49:50.878Z,930.15
2018-12-19T03:50:50.927Z,930.16
2018-12-19T03:51:50.988Z,930.15
2018-12-19T03:52:51.031Z,930.06
2018-12-19T03:53:51.068Z,930.09
2018-12-19T03:54:51.166Z,930.03
2018-12-19T03:55:51.179Z,930.12
2018-12-19T03:56:51.221Z,930.07
2018-12-19T03:57:51.250Z,930.06
2018-12-19T03:58:51.314Z,930.00
2018-12-19T03:59:51.333Z,929.99
2018-12-19T04:00:51.399Z,929.99
2018-12-19T04:01:51.473Z,930.01
2018-12-19T04:02:51.481Z,929.97
2018-12-19T04:03:51.557Z,929.97
2018-12-19T04:04:51.633Z,929.91
2018-12-19T04:05:51.679Z,929.95
2018-12-19T04:06:51.698Z,929.89
2018-12-19T04:07:51.778Z,929.89
2018-12-19T04:08:51.775Z,929.88
2018-12-19T04:09:57.631Z,929.81
2018-12-19T04:10:51.856Z,929.76
2018-12-19T04:11:51.997Z,929.78
2018-12-19T04:12:51.962Z,929.76
2018-12-19T04:13:51.989Z,929.69
2018-12-19T04:14:52.059Z,929.69
2018-12-19T04:15:52.096Z,929.68
2018-12-19T04:16:52.165Z,929.67
2018-12-19T04:17:52.174Z,929.64
2018-12-19T04:18:52.227Z,929.58
2018-12-19T04:19:52.263Z,929.57
2018-12-19T04:20:52.324Z,929.61
2018-12-19T04:21:52.375Z,929.59
2018-12-19T04:22:52.411Z,929.55
2018-12-19T04:23:52.433Z,929.52
2018-12-19T04:24:52.497Z,929.47
2018-12-19T04:25:52.595Z,929.53
2018-12-19T04:26:52.597Z,929.49
2018-12-19T04:27:52.652Z,929.51
2018-12-19T04:28:52.704Z,929.53
2018-12-19T04:29:52.720Z,929.62
2018-12-19T04:30:52.795Z,929.60
2018-12-19T04:31:52.833Z,929.68
2018-12-19T04:32:52.855Z,929.69
2018-12-19T04:33:52.922Z,929.66
2018-12-19T04:34:52.960Z,929.66
2018-12-19T04:35:52.990Z,929.70
2018-12-19T04:36:54.472Z,929.69
2018-12-19T04:37:53.116Z,929.63
2018-12-19T04:38:53.144Z,929.64
2018-12-19T04:39:53.199Z,929.60
2018-12-19T04:40:53.211Z,929.58
2018-12-19T04:41:53.265Z,929.57
2018-12-19T04:42:53.319Z,929.50
2018-12-19T04:43:53.386Z,929.45
2018-12-19T04:44:53.427Z,929.45
2018-12-19T04:45:53.458Z,929.35
2018-12-19T04:46:53.528Z,929.29
2018-12-19T04:47:53.561Z,929.27
2018-12-19T04:48:53.601Z,929.21
2018-12-19T04:49:53.699Z,929.18
2018-12-19T04:50:53.739Z,929.14
2018-12-19T04:51:53.727Z,929.15
2018-12-19T04:52:53.780Z,929.08
2018-12-19T04:53:53.838Z,929.05
2018-12-19T04:54:53.915Z,929.04
2018-12-19T04:55:53.906Z,928.98
2018-12-19T04:56:53.959Z,928.99
2018-12-19T04:57:54.028Z,928.97
2018-12-19T04:58:54.052Z,928.97
2018-12-19T04:59:54.113Z,928.94
2018-12-19T05:00:54.155Z,928.97
2018-12-19T05:01:54.181Z,928.94
2018-12-19T05:02:54.245Z,928.97
2018-12-19T05:03:54.283Z,928.93
2018-12-19T05:04:54.348Z,928.96
2018-12-19T05:05:54.381Z,928.97
2018-12-19T05:06:54.450Z,928.98
2018-12-19T05:07:54.530Z,928.96
2018-12-19T05:08:54.529Z,928.98
2018-12-19T05:09:54.598Z,928.95
2018-12-19T05:10:54.611Z,928.99
2018-12-19T05:11:54.673Z,928.92
2018-12-19T05:12:54.709Z,928.88
2018-12-19T05:13:54.760Z,928.89
2018-12-19T05:14:54.786Z,928.87
2018-12-19T05:15:54.840Z,928.85
2018-12-19T05:16:54.893Z,928.84
2018-12-19T05:17:54.955Z,928.83
2018-12-19T05:18:54.971Z,928.82
2018-12-19T05:19:55.029Z,928.82
2018-12-19T05:20:55.052Z,928.85
2018-12-19T05:21:55.157Z,928.82
2018-12-19T05:22:55.187Z,928.81
2018-12-19T05:23:55.229Z,928.84
2018-12-19T05:24:55.273Z,928.74
2018-12-19T05:25:55.302Z,928.74
2018-12-19T05:26:55.375Z,928.75
2018-12-19T05:27:55.666Z,928.76
2018-12-19T05:28:55.503Z,928.75
2018-12-19T05:29:55.483Z,928.77
2018-12-19T05:30:55.532Z,928.75
2018-12-19T05:31:55.593Z,928.76
2018-12-19T05:32:55.657Z,928.80
2018-12-19T05:33:55.671Z,928.86
2018-12-19T05:34:55.788Z,928.83
2018-12-19T05:35:55.774Z,928.85
2018-12-19T05:36:55.810Z,928.86
2018-12-19T05:37:55.871Z,928.85
2018-12-19T05:38:55.928Z,928.87
2018-12-19T05:39:55.976Z,928.87
2018-12-19T05:40:56.014Z,928.82
2018-12-19T05:41:56.070Z,928.80
2018-12-19T05:42:56.116Z,928.78
2018-12-19T05:43:56.157Z,928.80
2018-12-19T05:44:56.193Z,928.77
2018-12-19T05:45:56.243Z,928.73
2018-12-19T05:46:56.296Z,928.72
2018-12-19T05:47:56.345Z,928.66
2018-12-19T05:48:56.377Z,928.67
2018-12-19T05:49:56.420Z,928.64
2018-12-19T05:50:56.484Z,928.66
2018-12-19T05:51:56.534Z,928.65
2018-12-19T05:52:56.560Z,928.67
2018-12-19T05:53:56.658Z,928.69
2018-12-19T05:54:56.672Z,928.70
2018-12-19T05:55:56.687Z,928.67
2018-12-19T05:56:56.766Z,928.68
2018-12-19T05:57:56.832Z,928.72
2018-12-19T05:58:56.865Z,928.73
2018-12-19T05:59:56.899Z,928.72
2018-12-19T06:00:56.954Z,928.74
2018-12-19T06:01:56.979Z,928.76
2018-12-19T06:02:57.046Z,928.80
2018-12-19T06:03:57.084Z,928.85
2018-12-19T06:04:57.139Z,928.81
2018-12-19T06:05:57.192Z,928.88
2018-12-19T06:06:57.230Z,928.89
2018-12-19T06:07:57.313Z,928.92
2018-12-19T06:08:57.358Z,928.96
2018-12-19T06:09:57.361Z,929.00
2018-12-19T06:10:57.413Z,929.01
2018-12-19T06:11:57.467Z,929.05
2018-12-19T06:12:57.519Z,929.04
2018-12-19T06:13:57.560Z,929.10
2018-12-19T06:14:57.597Z,929.17
2018-12-19T06:15:57.658Z,929.18
2018-12-19T06:16:57.678Z,929.20
2018-12-19T06:17:57.731Z,929.24
2018-12-19T06:18:57.782Z,929.28
2018-12-19T06:19:57.812Z,929.24
2018-12-19T06:20:57.895Z,929.25
2018-12-19T06:21:57.929Z,929.31
2018-12-19T06:22:57.974Z,929.29
2018-12-19T06:23:58.038Z,929.28
2018-12-19T06:24:58.062Z,929.34
2018-12-19T06:25:58.137Z,929.38
2018-12-19T06:26:58.156Z,929.35
2018-12-19T06:27:58.210Z,929.35
2018-12-19T06:28:58.258Z,929.40
2018-12-19T06:29:58.374Z,929.38
2018-12-19T06:30:58.358Z,929.34
2018-12-19T06:31:58.437Z,929.37
2018-12-19T06:32:58.430Z,929.38
2018-12-19T06:33:58.477Z,929.35
2018-12-19T06:34:58.576Z,929.39
2018-12-19T06:35:58.625Z,929.36
2018-12-19T06:36:58.636Z,929.31
2018-12-19T06:37:58.660Z,929.31
2018-12-19T06:38:58.706Z,929.27
2018-12-19T06:39:58.764Z,929.27
2018-12-19T06:40:58.836Z,929.23
2018-12-19T06:41:58.862Z,929.25
2018-12-19T06:42:58.909Z,929.23
2018-12-19T06:43:58.978Z,929.25
2018-12-19T06:44:59.007Z,929.26
2018-12-19T06:45:59.072Z,929.25
2018-12-19T06:46:59.141Z,929.29
2018-12-19T06:47:59.138Z,929.31
2018-12-19T06:48:59.181Z,929.29
2018-12-19T06:49:59.235Z,929.28
2018-12-19T06:50:59.346Z,929.29
2018-12-19T06:51:59.397Z,929.26
2018-12-19T06:52:59.438Z,929.25
2018-12-19T06:53:59.470Z,929.30
2018-12-19T06:54:59.523Z,929.32
2018-12-19T06:55:59.582Z,929.30
2018-12-19T06:56:59.562Z,929.31
2018-12-19T06:57:59.661Z,929.32
2018-12-19T06:58:59.698Z,929.33
2018-12-19T06:59:59.707Z,929.36
2018-12-19T07:00:59.756Z,929.37
2018-12-19T07:02:28.326Z,929.37
2018-12-19T07:03:28.382Z,929.37
2018-12-19T07:04:28.478Z,929.35
2018-12-19T07:05:28.483Z,929.38
2018-12-19T07:06:28.518Z,929.38
2018-12-19T07:07:28.576Z,929.38
2018-12-19T07:08:28.607Z,929.38
2018-12-19T07:09:28.665Z,929.36
2018-12-19T07:10:28.692Z,929.37
2018-12-19T07:11:28.800Z,929.33
2018-12-19T07:12:28.810Z,929.34
2018-12-19T07:13:28.854Z,929.33
2018-12-19T07:14:28.890Z,929.27
2018-12-19T07:15:28.938Z,929.26
2018-12-19T07:16:28.974Z,929.24
2018-12-19T07:17:29.044Z,929.27
2018-12-19T07:18:29.103Z,929.24
2018-12-19T07:19:29.165Z,929.27
2018-12-19T07:20:29.218Z,929.24
2018-12-19T07:21:29.220Z,929.22
2018-12-19T07:22:29.270Z,929.23
2018-12-19T07:23:29.310Z,929.18
2018-12-19T07:24:29.402Z,929.20
2018-12-19T07:25:29.421Z,929.18
2018-12-19T07:26:29.499Z,929.19
2018-12-19T07:27:29.540Z,929.23
2018-12-19T07:28:29.574Z,929.28
2018-12-19T07:29:29.591Z,929.34
2018-12-19T07:30:29.679Z,929.40
2018-12-19T07:31:29.688Z,929.40
2018-12-19T07:32:29.738Z,929.40
2018-12-19T07:33:29.787Z,929.45
2018-12-19T07:34:29.874Z,929.43
2018-12-19T07:35:29.872Z,929.44
2018-12-19T07:36:29.943Z,929.41
2018-12-19T07:37:29.985Z,929.40
2018-12-19T07:38:30.044Z,929.36
2018-12-19T07:39:30.044Z,929.32
2018-12-19T07:40:30.091Z,929.28
2018-12-19T07:41:30.141Z,929.23
2018-12-19T07:42:30.187Z,929.17
2018-12-19T07:43:30.314Z,929.20
2018-12-19T07:44:30.615Z,929.20
2018-12-19T07:45:30.399Z,929.19
2018-12-19T07:46:30.390Z,929.21
2018-12-19T07:47:30.447Z,929.24
2018-12-19T07:48:30.468Z,929.14
2018-12-19T07:49:30.543Z,929.11
2018-12-19T07:50:30.598Z,929.10
2018-12-19T07:51:30.613Z,929.09
2018-12-19T07:52:30.685Z,929.12
2018-12-19T07:53:30.698Z,929.14
2018-12-19T07:54:30.770Z,929.15
2018-12-19T07:55:30.821Z,929.16
2018-12-19T07:56:30.837Z,929.13
2018-12-19T07:57:30.914Z,929.13
2018-12-19T07:58:31.000Z,929.12
2018-12-19T07:59:30.998Z,929.11
2018-12-19T08:00:31.037Z,929.12
2018-12-19T08:01:31.128Z,929.03
2018-12-19T08:02:31.138Z,928.98
2018-12-19T08:03:31.198Z,928.95
2018-12-19T08:04:31.269Z,928.95
2018-12-19T08:05:31.268Z,928.90
2018-12-19T08:06:31.339Z,928.93
2018-12-19T08:07:31.371Z,928.91
2018-12-19T08:08:31.428Z,928.92
2018-12-19T08:09:31.460Z,928.92
2018-12-19T08:10:31.502Z,928.90
2018-12-19T08:11:31.602Z,928.94
2018-12-19T08:12:35.990Z,928.97
2018-12-19T08:13:31.661Z,928.93
2018-12-19T08:14:31.711Z,928.93
2018-12-19T08:15:31.745Z,928.90
2018-12-19T08:16:31.774Z,928.85
2018-12-19T08:17:31.819Z,928.83
2018-12-19T08:18:31.871Z,928.84
2018-12-19T08:19:31.932Z,928.82
2018-12-19T08:20:31.970Z,928.84
2018-12-19T08:21:32.020Z,928.84
2018-12-19T08:22:32.082Z,928.87
2018-12-19T08:23:32.113Z,928.88
2018-12-19T08:24:32.179Z,928.85
2018-12-19T08:25:32.200Z,928.86
2018-12-19T08:26:32.251Z,928.82
2018-12-19T08:27:32.279Z,928.83
2018-12-19T08:28:32.338Z,928.82
2018-12-19T08:29:32.427Z,928.80
2018-12-19T08:30:32.428Z,928.85
2018-12-19T08:31:32.480Z,928.81
2018-12-19T08:32:32.545Z,928.81
2018-12-19T08:33:32.587Z,928.80
2018-12-19T08:34:32.624Z,928.81
2018-12-19T08:35:32.683Z,928.78
2018-12-19T08:36:32.753Z,928.79
2018-12-19T08:37:32.805Z,928.82
2018-12-19T08:38:32.807Z,928.88
2018-12-19T08:39:32.860Z,928.90
2018-12-19T08:40:32.918Z,928.91
2018-12-19T08:41:32.947Z,928.89
2018-12-19T08:42:33.000Z,928.84
2018-12-19T08:43:33.039Z,928.85
2018-12-19T08:44:33.098Z,928.87
2018-12-19T08:45:33.196Z,928.86
2018-12-19T08:46:33.177Z,928.89
2018-12-19T08:47:33.224Z,928.89
2018-12-19T08:48:33.295Z,928.87
2018-12-19T08:49:33.345Z,928.87
2018-12-19T08:50:33.356Z,928.87
2018-12-19T08:51:33.428Z,928.89
2018-12-19T08:52:33.464Z,928.89
2018-12-19T08:53:33.532Z,928.91
2018-12-19T08:54:33.567Z,928.90
2018-12-19T08:55:33.595Z,928.89
2018-12-19T08:56:33.677Z,928.86
2018-12-19T08:57:33.692Z,928.83
2018-12-19T08:58:33.761Z,928.79
2018-12-19T08:59:33.802Z,928.80
2018-12-19T09:00:33.865Z,928.76
2018-12-19T09:01:33.878Z,928.76
2018-12-19T09:02:33.928Z,928.75
2018-12-19T09:03:33.980Z,928.71
2018-12-19T09:04:34.090Z,928.69
2018-12-19T09:05:34.081Z,928.67
2018-12-19T09:06:34.134Z,928.66
2018-12-19T09:07:34.153Z,928.61
2018-12-19T09:08:34.235Z,928.58
2018-12-19T09:09:34.247Z,928.60
2018-12-19T09:10:34.301Z,928.57
2018-12-19T09:11:34.372Z,928.54
2018-12-19T09:12:34.399Z,928.56
2018-12-19T09:13:34.463Z,928.52
2018-12-19T09:14:34.491Z,928.50
2018-12-19T09:15:34.533Z,928.52
2018-12-19T09:16:34.593Z,928.50
2018-12-19T09:17:35.816Z,928.57
2018-12-19T09:18:34.683Z,928.55
2018-12-19T09:19:34.735Z,928.54
2018-12-19T09:20:34.794Z,928.55
2018-12-19T09:21:34.808Z,928.53
2018-12-19T09:22:34.875Z,928.50
2018-12-19T09:23:34.939Z,928.44
2018-12-19T09:24:34.956Z,928.45
2018-12-19T09:25:35.058Z,928.43
2018-12-19T09:26:35.067Z,928.43
2018-12-19T09:27:35.120Z,928.38
2018-12-19T09:28:35.144Z,928.41
2018-12-19T09:29:35.194Z,928.44
2018-12-19T09:30:35.252Z,928.42
2018-12-19T09:31:35.303Z,928.43
2018-12-19T09:32:35.365Z,928.42
2018-12-19T09:33:35.395Z,928.36
2018-12-19T09:34:35.440Z,928.37
2018-12-19T09:35:35.497Z,928.36
2018-12-19T09:36:35.529Z,928.40
2018-12-19T09:37:35.574Z,928.38
2018-12-19T09:38:35.640Z,928.43
2018-12-19T09:39:35.663Z,928.40
2018-12-19T09:40:35.704Z,928.41
2018-12-19T09:41:35.817Z,928.38
2018-12-19T09:42:35.832Z,928.41
2018-12-19T09:43:35.874Z,928.38
2018-12-19T09:44:35.925Z,928.37
2018-12-19T09:45:35.960Z,928.38
2018-12-19T09:46:35.995Z,928.39
2018-12-19T09:47:36.035Z,928.42
2018-12-19T09:48:36.087Z,928.49
2018-12-19T09:49:36.162Z,928.45
2018-12-19T09:50:36.199Z,928.50
2018-12-19T09:51:36.227Z,928.54
2018-12-19T09:52:36.271Z,928.60
2018-12-19T09:53:36.357Z,928.68
2018-12-19T09:54:36.389Z,928.69
2018-12-19T09:55:36.441Z,928.72
2018-12-19T09:56:36.493Z,928.77
2018-12-19T09:57:36.537Z,928.77
2018-12-19T09:58:36.585Z,928.77
2018-12-19T09:59:36.619Z,928.79
2018-12-19T10:00:36.653Z,928.78
2018-12-19T10:01:36.720Z,928.87
2018-12-19T10:02:36.773Z,928.89
2018-12-19T10:03:36.804Z,928.90
2018-12-19T10:04:36.856Z,928.90
2018-12-19T10:05:36.902Z,928.91
2018-12-19T10:06:36.963Z,928.94
2018-12-19T10:07:37.052Z,928.91
2018-12-19T10:08:37.101Z,928.90
2018-12-19T10:09:37.101Z,928.91
2018-12-19T10:10:37.190Z,928.88
2018-12-19T10:11:37.187Z,928.87
2018-12-19T10:12:37.241Z,928.90
2018-12-19T10:13:37.349Z,928.90
2018-12-19T10:14:37.378Z,928.91
2018-12-19T10:15:37.376Z,928.95
2018-12-19T10:16:37.446Z,928.92
2018-12-19T10:17:40.893Z,928.96
2018-12-19T10:18:37.538Z,928.96
2018-12-19T10:19:37.593Z,928.94
2018-12-19T10:20:37.623Z,928.95
2018-12-19T10:21:37.684Z,928.98
2018-12-19T10:22:37.736Z,928.98
2018-12-19T10:23:37.792Z,928.96
2018-12-19T10:24:37.819Z,928.92
2018-12-19T10:25:37.872Z,928.94
2018-12-19T10:26:37.933Z,928.94
2018-12-19T10:27:37.979Z,928.94
2018-12-19T10:28:38.031Z,928.97
2018-12-19T10:29:38.081Z,928.95
2018-12-19T10:30:38.111Z,928.95
2018-12-19T10:31:38.173Z,928.95
2018-12-19T10:32:38.213Z,928.99
2018-12-19T10:33:38.266Z,929.00
2018-12-19T10:34:38.320Z,928.96
2018-12-19T10:35:38.350Z,928.99
2018-12-19T10:36:38.415Z,928.95
2018-12-19T10:37:38.470Z,928.94
2018-12-19T10:38:38.488Z,928.88
2018-12-19T10:39:38.556Z,928.91
2018-12-19T10:40:38.609Z,928.89
2018-12-19T10:41:38.674Z,928.88
2018-12-19T10:42:38.725Z,928.89
2018-12-19T10:43:38.754Z,928.89
2018-12-19T10:44:38.838Z,928.92
2018-12-19T10:45:38.867Z,928.91
2018-12-19T10:46:38.879Z,928.95
2018-12-19T10:47:38.949Z,928.97
2018-12-19T10:48:38.976Z,928.97
2018-12-19T10:49:39.059Z,929.01
2018-12-19T10:50:39.132Z,928.98
2018-12-19T10:51:39.136Z,929.01
2018-12-19T10:52:39.180Z,929.04
2018-12-19T10:53:39.248Z,929.01
2018-12-19T10:54:39.301Z,928.99
2018-12-19T10:55:39.379Z,928.98
2018-12-19T10:56:39.387Z,928.88
2018-12-19T10:57:39.445Z,928.94
2018-12-19T10:58:39.483Z,928.90
2018-12-19T10:59:39.548Z,928.91
2018-12-19T11:00:39.586Z,928.91
2018-12-19T11:01:39.635Z,928.91
2018-12-19T11:02:39.702Z,928.85
2018-12-19T11:03:39.743Z,928.84
2018-12-19T11:04:40.356Z,928.85
2018-12-19T11:05:39.915Z,928.82
2018-12-19T11:06:39.930Z,928.86
2018-12-19T11:07:39.942Z,928.85
2018-12-19T11:08:39.987Z,928.85
2018-12-19T11:09:40.044Z,928.83
2018-12-19T11:10:40.113Z,928.87
2018-12-19T11:11:40.156Z,928.87
2018-12-19T11:12:40.199Z,928.91
2018-12-19T11:13:40.267Z,928.89
2018-12-19T11:14:40.329Z,928.86
2018-12-19T11:15:40.365Z,928.85
2018-12-19T11:16:40.414Z,928.84
2018-12-19T11:17:40.470Z,928.81
2018-12-19T11:18:40.521Z,928.83
2018-12-19T11:19:40.607Z,928.84
2018-12-19T11:20:40.625Z,928.82
2018-12-19T11:21:40.654Z,928.78
2018-12-19T11:22:40.706Z,928.77
2018-12-19T11:23:40.823Z,928.79
2018-12-19T11:24:40.835Z,928.80
2018-12-19T11:25:40.871Z,928.79
2018-12-19T11:26:40.941Z,928.79
2018-12-19T11:27:40.997Z,928.78
2018-12-19T11:28:41.052Z,928.72
2018-12-19T11:29:41.096Z,928.82
2018-12-19T11:30:41.130Z,928.78
2018-12-19T11:31:41.202Z,928.78
2018-12-19T11:32:41.269Z,928.80
2018-12-19T11:33:41.298Z,928.78
2018-12-19T11:34:41.370Z,928.83
2018-12-19T11:35:41.416Z,928.86
2018-12-19T11:36:41.445Z,928.85
2018-12-19T11:37:41.575Z,928.83
2018-12-19T11:38:41.581Z,928.86
2018-12-19T11:39:41.638Z,928.86
2018-12-19T11:40:41.695Z,928.86
2018-12-19T11:41:41.736Z,928.88
2018-12-19T11:42:41.794Z,928.91
2018-12-19T11:43:41.839Z,928.99
2018-12-19T11:44:41.891Z,929.00
2018-12-19T11:45:41.942Z,928.97
2018-12-19T11:46:42.007Z,929.00
2018-12-19T11:47:42.075Z,928.98
2018-12-19T11:48:42.115Z,929.01
2018-12-19T11:49:42.156Z,929.01
2018-12-19T11:50:42.223Z,928.99
2018-12-19T11:51:42.287Z,928.98
2018-12-19T11:52:42.352Z,928.97
2018-12-19T11:53:42.400Z,928.94
2018-12-19T11:54:42.457Z,928.92
2018-12-19T11:55:42.491Z,928.88
2018-12-19T11:56:42.564Z,928.86
2018-12-19T11:57:42.614Z,928.87
2018-12-19T11:58:42.668Z,928.88
2018-12-19T11:59:42.726Z,928.87
2018-12-19T12:00:42.782Z,928.92
2018-12-19T12:01:42.841Z,928.92
2018-12-19T12:02:42.885Z,928.90
2018-12-19T12:03:42.943Z,928.93
2018-12-19T12:04:42.989Z,928.96
2018-12-19T12:05:43.067Z,928.97
2018-12-19T12:06:43.116Z,928.94
2018-12-19T12:07:43.194Z,928.92
2018-12-19T12:08:43.243Z,928.90
2018-12-19T12:09:43.276Z,928.87
2018-12-19T12:10:43.321Z,928.84
2018-12-19T12:11:45.798Z,928.83
2018-12-19T12:12:43.438Z,928.81
2018-12-19T12:13:43.498Z,928.80
2018-12-19T12:14:43.559Z,928.81
2018-12-19T12:15:43.587Z,928.77
2018-12-19T12:16:43.651Z,928.75
2018-12-19T12:17:43.697Z,928.74
2018-12-19T12:18:43.782Z,928.73
2018-12-19T12:19:43.808Z,928.70
2018-12-19T12:20:43.888Z,928.72
2018-12-19T12:21:43.920Z,928.70
2018-12-19T12:22:43.977Z,928.69
2018-12-19T12:23:47.336Z,928.68
2018-12-19T12:24:44.081Z,928.70
2018-12-19T12:25:44.157Z,928.67
2018-12-19T12:26:44.250Z,928.69
2018-12-19T12:27:44.263Z,928.73
2018-12-19T12:28:44.305Z,928.68
2018-12-19T12:29:44.387Z,928.73